Hertz Global Holdings Inc (HTZ) Latest Bloomsberg Price


Mffais Ranking #3019 Overall / #19 Industry
Industry: Automotive Retailers

Number of Companies: 138 (Ranking #1264 Overall/#12 Industry)
Inflow: $ 4,878 (K) (Ranking #2217 Overall/#16 Industry)
Outflow: $ -5,542,073 (K)
Mffais Flow: $ -5,537,194 (K) (Ranking #3019 Overall/#19 Industry)


Receive a FREE weekly executive review of stocks moving into the top 10, taking the top industy spot or moving up within their industry. Sent directly to your Inbox every Saturday. Sign up today and get last week's review immediately sent to you.

We value and respect your privacy. Please read our Terms and Conditions which states our firm commitment to your privacy. Your email address will not be shared with a third party, nor will it be sold or used for purposes other than subscription for the weekly review.

Owner CPOR Shares Action Qty Chg Invested (K) Total Current Value (K)
Livforsakringsbolaget Skandia Omsesidigt 2016-09-30 119,751 Added More 92,841 $ 4,878 $ 6,292
Massmutual Trust Co Fsb Adv 2016-06-30 0 New Holding 0 $ 0 $ 0
Tompkins Financial Corp 2016-09-30 0 Sold All -42 $ -2 $ 0
Qs Investors Llc 2016-09-30 0 Sold All -68 $ -3 $ 0
Hudock Capital Group Llc 2016-09-30 0 Sold All -100 $ -5 $ 0
Dubuque Bank Trust Co 2016-09-30 0 Sold All -149 $ -7 $ 0
Prentiss Smith Co Inc 2016-09-30 0 Sold All -180 $ -9 $ 0
Northwestern Mutual Wealth Management Co 2016-09-30 0 Sold All -182 $ -9 $ 0
Seven Eight Capital Llc 2016-09-30 0 Sold All -231 $ -12 $ 0
Capital Advisors Ltd Llc 2016-09-30 0 Sold All -250 $ -13 $ 0
Thompson Davis Co Inc 2016-09-30 0 Sold All -500 $ -26 $ 0
Feltz Wealth Plan Inc 2016-09-30 0 Sold All -500 $ -26 $ 0
Msi Financial Services Inc 2016-09-30 0 Sold All -1,785 $ -93 $ 0
Exane Derivatives 2016-09-30 0 Sold All -2,000 $ -105 $ 0
Jacobi Capital Management Llc 2016-09-30 0 Sold All -2,200 $ -115 $ 0
Tower Research Capital Llc Trc 2016-09-30 0 Sold All -2,379 $ -125 $ 0
Washington Trust Bank 2016-09-30 0 Sold All -3,080 $ -161 $ 0
Mosaic Family Wealth Llc 2016-09-30 0 Sold All -4,625 $ -243 $ 0
Ladenburg Thalmann Financial Services Inc 2016-09-30 0 Sold All -6,057 $ -318 $ 0
Advisor Group Inc 2016-09-30 0 Sold All -6,317 $ -331 $ 0
Quantbot Technologies Lp 2016-09-30 0 Sold All -6,804 $ -357 $ 0
Nisa Investment Advisors Llc 2016-09-30 0 Sold All -7,030 $ -369 $ 0
Us Bancorp De 2016-09-30 0 Sold All -8,542 $ -448 $ 0
Havens Advisors Llc 2016-09-30 0 Sold All -8,785 $ -461 $ 0
First Manhattan Co 2016-09-30 0 Sold All -8,838 $ -464 $ 0
Brave Asset Management Inc 2016-09-30 0 Sold All -9,150 $ -480 $ 0
Zurcher Kantonalbank Zurich Cantonalbank 2016-09-30 0 Sold All -9,390 $ -493 $ 0
Compagnie Lombard Odier Scma 2016-09-30 0 Sold All -11,900 $ -625 $ 0
Petrus Trust Company Lta 2016-09-30 0 Sold All -13,003 $ -683 $ 0
Pitcairn Co 2016-09-30 0 Sold All -14,363 $ -754 $ 0
World Asset Management Inc 2016-09-30 0 Sold All -15,487 $ -813 $ 0
First Mercantile Trust Co 2016-09-30 0 Sold All -15,500 $ -814 $ 0
Alambic Investment Management L P 2016-09-30 0 Sold All -16,910 $ -888 $ 0
Pacer Advisors Inc 2016-09-30 0 Sold All -16,932 $ -889 $ 0
Portland Investment Counsel Inc 2016-09-30 0 Sold All -17,075 $ -897 $ 0
Bb T Corp 2016-09-30 0 Sold All -17,276 $ -907 $ 0
Stifel Financial Corp 2016-09-30 0 Sold All -18,045 $ -948 $ 0
Private Advisor Group Llc 2016-09-30 0 Sold All -18,834 $ -989 $ 0
Cibc Asset Management Inc 2016-09-30 0 Sold All -19,125 $ -1,005 $ 0
American International Group Inc 2016-09-30 0 Sold All -19,608 $ -1,030 $ 0
Fifth Third Bancorp 2016-09-30 0 Sold All -20,273 $ -1,065 $ 0
Eqis Capital Management Inc 2016-09-30 5,444 Sold Some -20,339 $ -1,068 $ 286
Wall Street Associates 2016-09-30 0 Sold All -22,645 $ -1,189 $ 0
Plante Moran Financial Advisors Llc 2016-09-30 0 Sold All -23,856 $ -1,253 $ 0
Nomura Asset Management Co Ltd 2016-09-30 0 Sold All -24,450 $ -1,284 $ 0
Newtyn Management Llc 2016-09-30 0 Sold All -24,794 $ -1,302 $ 0
Deltec Asset Management Llc 2016-09-30 0 Sold All -25,500 $ -1,340 $ 0
Raymond James Financial Services Advisors Inc 2016-09-30 0 Sold All -26,742 $ -1,405 $ 0
Guggenheim Capital Llc 2016-09-30 0 Sold All -27,719 $ -1,456 $ 0
Two Sigma Securities Llc 2016-09-30 0 Sold All -27,983 $ -1,470 $ 0
Highlander Capital Management Llc 2016-09-30 0 Sold All -29,000 $ -1,523 $ 0
Old National Bancorp In 2016-09-30 0 Sold All -29,075 $ -1,527 $ 0
Gam Holding Ag 2016-09-30 0 Sold All -30,000 $ -1,576 $ 0
Baldwin Brothers Inc Ma 2016-09-30 0 Sold All -30,950 $ -1,626 $ 0
Old Mutual Customised Solutions Proprietary Ltd 2016-09-30 0 Sold All -31,200 $ -1,639 $ 0
Glg Llc 2016-09-30 0 Sold All -31,233 $ -1,641 $ 0
Skylands Capital Llc 2016-09-30 0 Sold All -33,500 $ -1,760 $ 0
Sg Americas Securities Llc 2016-09-30 0 Sold All -34,286 $ -1,801 $ 0
Scotia Capital Inc 2016-09-30 0 Sold All -34,500 $ -1,812 $ 0
Ibm Retirement Fund 2016-09-30 0 Sold All -36,440 $ -1,914 $ 0
Pacad Investment Ltd 2016-09-30 0 Sold All -39,712 $ -2,086 $ 0
Cna Financial Corp 2016-09-30 0 Sold All -41,100 $ -2,159 $ 0
Fdx Advisors Inc 2016-09-30 0 Sold All -45,630 $ -2,397 $ 0
Bokf Na 2016-09-30 0 Sold All -47,027 $ -2,471 $ 0
Grt Capital Partners L L C 2016-09-30 0 Sold All -48,670 $ -2,557 $ 0
Teacher Retirement System Of Texas 2016-09-30 0 Sold All -49,590 $ -2,605 $ 0
Commonwealth Equity Services Inc 2016-09-30 0 Sold All -50,671 $ -2,662 $ 0
Cutler Group Lp 2016-09-30 0 Sold All -54,014 $ -2,838 $ 0
Gargoyle Investment Advisor L L C 2016-09-30 0 Sold All -55,373 $ -2,909 $ 0
Highbridge Capital Management Llc 2016-09-30 0 Sold All -63,300 $ -3,326 $ 0
Quinn Opportunity Partners Llc 2016-09-30 16,140 Sold Some -64,560 $ -3,392 $ 848
Group One Trading L P 2016-09-30 0 Sold All -64,870 $ -3,408 $ 0
Private Trust Co Na 2016-09-30 0 Sold All -65,001 $ -3,415 $ 0
Capital Fund Management S A 2016-09-30 0 Sold All -65,500 $ -3,442 $ 0
Utah Retirement Systems 2016-09-30 0 Sold All -65,784 $ -3,456 $ 0
Needham Investment Management Llc 2016-09-30 0 Sold All -70,000 $ -3,678 $ 0
M T Bank Corp 2016-09-30 0 Sold All -73,115 $ -3,842 $ 0
Oregon Public Employees Retirement Fund 2016-09-30 0 Sold All -81,675 $ -4,292 $ 0
Jane Street Group Llc 2016-09-30 0 Sold All -83,598 $ -4,393 $ 0
Kcg Holdings Inc 2016-09-30 0 Sold All -84,064 $ -4,417 $ 0
Horizon Kinetics Llc 2016-09-30 0 Sold All -95,350 $ -5,010 $ 0
Point72 Asia Hong Kong Ltd 2016-09-30 0 Sold All -111,751 $ -5,872 $ 0
Aperio Group Llc 2016-09-30 0 Sold All -112,848 $ -5,930 $ 0
Amp Capital Investors Ltd 2016-09-30 0 Sold All -114,349 $ -6,009 $ 0
Raymond James Associates 2016-09-30 0 Sold All -119,265 $ -6,267 $ 0
Wilen Investment Management Corp 2016-09-30 0 Sold All -126,502 $ -6,647 $ 0
Westpac Banking Corp 2016-09-30 0 Sold All -128,000 $ -6,726 $ 0
Pnc Financial Services Group Inc 2016-09-30 0 Sold All -131,154 $ -6,892 $ 0
Natixis Asset Management 2016-09-30 0 Sold All -132,579 $ -6,967 $ 0
Chesapeake Partners Management Co Inc Md 2016-06-30 2,020,455 Sold Some -630,982 $ -6,984 $ 22,366
Timber Hill Llc 2016-09-30 0 Sold All -137,094 $ -7,204 $ 0
Cubist Systematic Strategies Llc 2016-09-30 0 Sold All -145,399 $ -7,640 $ 0
Emerald Acquisition Ltd 2016-09-30 0 Sold All -156,508 $ -8,224 $ 0
Gabelli Securities Inc 2016-09-30 0 Sold All -167,486 $ -8,801 $ 0
Commerzbank Aktiengesellschaft Fi 2016-09-30 0 Sold All -181,510 $ -9,538 $ 0
Spot Trading L L C 2016-09-30 0 Sold All -186,400 $ -9,795 $ 0
Hsbc Holdings Plc 2016-09-30 0 Sold All -190,916 $ -10,032 $ 0
Royal London Asset Management Ltd 2016-06-30 157,428 Sold Some -979,882 $ -10,847 $ 1,742
Bluecrest Capital Management Ltd 2016-09-30 0 Sold All -216,249 $ -11,363 $ 0
Atlantic Trust Group Llc 2016-09-30 0 Sold All -234,705 $ -12,333 $ 0
First Republic Investment Management Inc 2016-09-30 0 Sold All -237,286 $ -12,469 $ 0
Walleye Trading Llc 2016-09-30 0 Sold All -265,443 $ -13,949 $ 0
Aviva Plc 2016-09-30 0 Sold All -265,628 $ -13,958 $ 0
Connor Clark Lunn Investment Management Ltd 2016-09-30 0 Sold All -276,778 $ -14,544 $ 0
Merriman Wealth Management Llc 2016-09-30 0 Sold All -297,793 $ -15,649 $ 0
United Capital Financial Advisers Llc 2016-09-30 0 Sold All -376,891 $ -19,805 $ 0
13d Management Llc 2016-09-30 0 Sold All -425,532 $ -22,361 $ 0
Cove Street Capital Llc 2016-09-30 0 Sold All -450,410 $ -23,669 $ 0
Kennedy Capital Management Inc 2016-09-30 0 Sold All -467,803 $ -24,583 $ 0
Swiss National Bank 2016-09-30 0 Sold All -591,698 $ -31,093 $ 0
Pdt Partners Llc 2016-09-30 0 Sold All -679,400 $ -35,702 $ 0
Sei Investments Co 2016-09-30 0 Sold All -708,229 $ -37,217 $ 0
Gateway Investment Advisers Llc 2016-09-30 0 Sold All -719,528 $ -37,811 $ 0
Royce Associates Lp 2016-09-30 0 Sold All -779,500 $ -40,962 $ 0
California State Teachers Retirement System 2016-09-30 0 Sold All -780,772 $ -41,029 $ 0
Cortland Associates Inc Mo 2016-09-30 0 Sold All -856,215 $ -44,994 $ 0
Wexford Capital Lp 2016-09-30 0 Sold All -1,054,000 $ -55,387 $ 0
Mountain Lake Investment Management Llc 2016-09-30 0 Sold All -1,095,500 $ -57,568 $ 0
New York State Common Retirement Fund 2016-09-30 0 Sold All -1,441,000 $ -75,724 $ 0
Northern Trust Corp 2016-09-30 0 Sold All -1,478,504 $ -77,695 $ 0
Twin Securities Inc 2016-09-30 0 Sold All -1,509,813 $ -79,340 $ 0
Redwood Capital Management Llc 2016-09-30 0 Sold All -1,625,000 $ -85,393 $ 0
Bluemountain Capital Management Llc 2016-09-30 0 Sold All -1,645,312 $ -86,461 $ 0
Ascend Capital Llc 2016-09-30 0 Sold All -1,704,410 $ -89,566 $ 0
Legal General Group Plc 2016-09-30 0 Sold All -1,890,484 $ -99,344 $ 0
Par Capital Management Inc 2016-09-30 0 Sold All -2,000,000 $ -105,100 $ 0
Gabelli Funds Llc 2016-09-30 0 Sold All -2,462,763 $ -129,418 $ 0
Vaughan Nelson Investment Management L P 2016-09-30 0 Sold All -2,910,600 $ -152,952 $ 0
Greenlight Capital Inc 2016-09-30 0 Sold All -3,300,000 $ -173,415 $ 0
Teachers Advisors Llc 2016-09-30 0 Sold All -3,352,808 $ -176,190 $ 0
Sterling Capital Management Llc 2016-09-30 0 Sold All -3,998,833 $ -210,138 $ 0
Dimensional Fund Advisors Lp 2016-09-30 0 Sold All -5,231,930 $ -274,937 $ 0
Gamco Investors Inc Et Al 2016-09-30 0 Sold All -6,999,237 $ -367,809 $ 0
Lyrical Asset Management Lp 2016-09-30 0 Sold All -7,275,359 $ -382,320 $ 0
Fir Tree Inc 2016-09-30 0 Sold All -7,653,254 $ -402,178 $ 0
Srs Investment Management Llc 2016-09-30 0 Sold All -10,000,000 $ -525,500 $ 0
Sasco Capital Inc Ct 2016-09-30 0 Sold All -11,752,689 $ -617,603 $ 0
Amerigo Asset Management 2016-09-30 0 Sold All -11,794,075 $ -619,778 $ 0